createdAt,value
2023-07-23T00:00:10.281Z,5.25
2023-07-23T00:02:38.235Z,5.80
2023-07-23T00:05:06.582Z,5.97
2023-07-23T00:07:34.520Z,6.15
2023-07-23T00:10:02.275Z,7.68
2023-07-23T00:12:31.474Z,5.35
2023-07-23T00:14:59.193Z,4.72
2023-07-23T00:17:27.052Z,6.10
2023-07-23T00:19:54.714Z,5.50
2023-07-23T00:22:22.495Z,5.47
2023-07-23T00:24:50.555Z,5.03
2023-07-23T00:27:18.245Z,7.40
2023-07-23T00:29:47.192Z,5.70
2023-07-23T00:32:14.841Z,4.75
2023-07-23T00:34:42.493Z,6.57
2023-07-23T00:37:10.526Z,6.07
2023-07-23T00:39:38.284Z,6.40
2023-07-23T00:42:06.384Z,5.70
2023-07-23T00:44:34.045Z,7.07
2023-07-23T00:47:04.887Z,4.65
2023-07-23T00:49:32.933Z,6.50
2023-07-23T00:52:01.375Z,6.38
2023-07-23T00:54:29.533Z,6.43
2023-07-23T00:56:58.072Z,4.82
2023-07-23T00:59:26.297Z,5.35
2023-07-23T01:01:54.041Z,7.37
2023-07-23T01:04:23.076Z,4.55
2023-07-23T01:06:51.370Z,5.43
2023-07-23T01:09:21.077Z,5.15
2023-07-23T01:11:50.603Z,5.32
2023-07-23T01:14:20.156Z,6.28
2023-07-23T01:16:47.849Z,5.10
2023-07-23T01:19:16.944Z,4.82
2023-07-23T01:21:46.122Z,6.53
2023-07-23T01:24:15.201Z,5.82
2023-07-23T01:26:43.034Z,6.72
2023-07-23T01:29:11.623Z,7.03
2023-07-23T01:31:39.314Z,5.18
2023-07-23T01:34:07.689Z,6.57
2023-07-23T01:36:35.437Z,6.15
2023-07-23T01:39:03.195Z,7.13
2023-07-23T01:41:32.342Z,6.65
2023-07-23T01:44:02.353Z,6.13
2023-07-23T01:46:30.206Z,6.68
2023-07-23T01:48:58.046Z,6.38
2023-07-23T01:51:26.117Z,5.68
2023-07-23T01:53:53.998Z,6.30
2023-07-23T01:56:21.637Z,6.85
2023-07-23T01:58:50.541Z,7.20
2023-07-23T02:01:18.348Z,6.40
2023-07-23T02:03:46.131Z,6.00
2023-07-23T02:06:13.891Z,6.18
2023-07-23T02:08:41.622Z,6.75
2023-07-23T02:11:09.237Z,6.25
2023-07-23T02:13:37.330Z,7.18
2023-07-23T02:16:07.103Z,7.22
2023-07-23T02:18:34.859Z,6.00
2023-07-23T02:21:02.521Z,7.80
2023-07-23T02:23:30.261Z,5.90
2023-07-23T02:25:57.905Z,6.50
2023-07-23T02:28:25.647Z,7.32
2023-07-23T02:30:58.234Z,6.65
2023-07-23T02:33:28.226Z,6.37
2023-07-23T02:35:55.875Z,6.53
2023-07-23T02:38:23.495Z,6.63
2023-07-23T02:40:57.132Z,7.17
2023-07-23T02:43:25.241Z,6.32
2023-07-23T02:45:53.745Z,7.47
2023-07-23T02:48:21.369Z,7.20
2023-07-23T02:50:50.443Z,7.00
2023-07-23T02:53:18.141Z,7.35
2023-07-23T02:55:46.462Z,7.40
2023-07-23T02:58:14.089Z,6.95
2023-07-23T03:00:41.775Z,6.88
2023-07-23T03:03:10.121Z,8.95
2023-07-23T03:05:38.918Z,7.82
2023-07-23T03:08:08.156Z,8.60
2023-07-23T03:10:35.892Z,7.50
2023-07-23T03:13:03.588Z,5.73
2023-07-23T03:15:31.946Z,6.03
2023-07-23T03:17:59.629Z,7.65
2023-07-23T03:20:27.621Z,9.88
2023-07-23T03:22:55.310Z,7.85
2023-07-23T03:25:24.312Z,7.35
2023-07-23T03:27:51.964Z,7.85
2023-07-23T03:30:19.788Z,8.45
2023-07-23T03:32:47.605Z,7.13
2023-07-23T03:35:15.274Z,7.35
2023-07-23T03:37:42.937Z,8.27
2023-07-23T03:40:11.136Z,7.03
2023-07-23T03:42:40.128Z,6.53
2023-07-23T03:45:09.373Z,7.28
2023-07-23T03:47:37.179Z,7.00
2023-07-23T03:50:05.372Z,7.30
2023-07-23T03:52:33.107Z,7.15
2023-07-23T03:55:00.759Z,5.93
2023-07-23T03:57:28.481Z,8.25
2023-07-23T03:59:57.515Z,6.38
2023-07-23T04:02:25.335Z,6.60
2023-07-23T04:04:52.981Z,7.13
2023-07-23T04:07:20.634Z,7.10
2023-07-23T04:09:48.271Z,7.88
2023-07-23T04:12:15.992Z,6.87
2023-07-23T04:14:44.935Z,6.75
2023-07-23T04:17:17.682Z,7.90
2023-07-23T04:19:46.027Z,7.20
2023-07-23T04:22:13.756Z,6.63
2023-07-23T04:24:41.495Z,7.20
2023-07-23T04:27:09.280Z,6.82
2023-07-23T04:29:36.918Z,7.38
2023-07-23T04:32:04.919Z,7.72
2023-07-23T04:34:33.855Z,6.30
2023-07-23T04:37:01.626Z,5.95
2023-07-23T04:39:29.261Z,5.87
2023-07-23T04:41:56.937Z,5.57
2023-07-23T04:44:24.968Z,5.60
2023-07-23T04:46:52.675Z,6.45
2023-07-23T04:49:20.369Z,6.32
2023-07-23T04:51:49.391Z,5.25
2023-07-23T04:54:17.175Z,4.93
2023-07-23T04:56:44.873Z,5.15
2023-07-23T04:59:12.478Z,4.78
2023-07-23T05:01:40.589Z,4.60
2023-07-23T05:04:08.443Z,5.33
2023-07-23T05:06:36.160Z,5.30
2023-07-23T05:09:05.376Z,4.93
2023-07-23T05:11:33.198Z,7.13
2023-07-23T05:14:00.969Z,4.57
2023-07-23T05:16:28.594Z,6.07
2023-07-23T05:18:56.327Z,4.78
2023-07-23T05:21:24.070Z,6.13
2023-07-23T05:23:51.807Z,4.40
2023-07-23T05:26:20.930Z,4.45
2023-07-23T05:28:48.692Z,5.10
2023-07-23T05:31:16.575Z,5.25
2023-07-23T05:33:44.327Z,4.43
2023-07-23T05:36:12.193Z,5.38
2023-07-23T05:38:40.165Z,6.28
2023-07-23T05:41:07.874Z,4.63
2023-07-23T05:43:36.908Z,3.95
2023-07-23T05:46:04.814Z,5.18
2023-07-23T05:48:32.577Z,5.07
2023-07-23T05:51:00.245Z,5.03
2023-07-23T05:53:27.908Z,3.90
2023-07-23T05:55:55.646Z,3.22
2023-07-23T05:58:23.288Z,3.75
2023-07-23T06:00:52.306Z,4.15
2023-07-23T06:03:20.088Z,5.53
2023-07-23T06:05:47.931Z,3.40
2023-07-23T06:08:15.758Z,3.70
2023-07-23T06:10:43.741Z,3.50
2023-07-23T06:13:11.692Z,3.33
2023-07-23T06:15:39.381Z,2.23
2023-07-23T06:18:08.351Z,3.72
2023-07-23T06:20:36.028Z,2.83
2023-07-23T06:23:03.756Z,2.95
2023-07-23T06:25:31.437Z,2.33
2023-07-23T06:27:59.160Z,2.60
2023-07-23T06:30:26.982Z,2.15
2023-07-23T06:32:54.677Z,1.88
2023-07-23T06:35:23.716Z,4.22
2023-07-23T06:37:51.384Z,2.38
2023-07-23T06:40:19.143Z,1.88
2023-07-23T06:42:47.156Z,1.92
2023-07-23T06:45:15.150Z,2.07
2023-07-23T06:47:42.893Z,2.28
2023-07-23T06:50:11.341Z,1.73
2023-07-23T06:52:40.329Z,1.98
2023-07-23T06:55:08.153Z,1.60
2023-07-23T06:57:35.854Z,1.50
2023-07-23T07:00:03.892Z,2.10
2023-07-23T07:02:31.591Z,2.00
2023-07-23T07:04:59.304Z,1.70
2023-07-23T07:07:27.222Z,1.80
2023-07-23T07:09:56.365Z,3.65
2023-07-23T07:12:24.043Z,2.45
2023-07-23T07:14:51.893Z,2.72
2023-07-23T07:17:19.541Z,2.90
2023-07-23T07:19:47.399Z,3.20
2023-07-23T07:22:15.104Z,1.95
2023-07-23T07:24:42.760Z,2.15
2023-07-23T07:27:12.130Z,3.80
2023-07-23T07:29:42.213Z,2.53
2023-07-23T07:32:10.687Z,1.90
2023-07-23T07:34:38.417Z,1.65
2023-07-23T07:37:06.752Z,1.55
2023-07-23T07:39:35.631Z,2.40
2023-07-23T07:42:03.345Z,1.30
2023-07-23T07:44:33.847Z,2.45
2023-07-23T07:47:01.819Z,1.45
2023-07-23T07:49:29.619Z,1.75
2023-07-23T07:51:57.466Z,1.70
2023-07-23T07:54:25.311Z,1.25
2023-07-23T07:56:53.662Z,1.87
2023-07-23T07:59:21.875Z,2.63
2023-07-23T08:01:51.557Z,2.23
2023-07-23T08:04:19.802Z,3.78
2023-07-23T08:06:47.875Z,2.25
2023-07-23T08:09:18.747Z,4.18
2023-07-23T08:11:49.535Z,1.75
2023-07-23T08:14:19.685Z,2.20
2023-07-23T08:16:49.803Z,1.92
2023-07-23T08:19:19.420Z,2.33
2023-07-23T08:21:47.731Z,2.47
2023-07-23T08:24:15.805Z,1.55
2023-07-23T08:26:44.812Z,2.45
2023-07-23T08:29:14.539Z,2.03
2023-07-23T08:31:42.577Z,1.90
2023-07-23T08:34:10.578Z,2.47
2023-07-23T08:36:40.224Z,1.27
2023-07-23T08:39:08.938Z,2.22
2023-07-23T08:41:39.330Z,1.67
2023-07-23T08:44:34.938Z,3.60
2023-07-23T08:47:13.077Z,1.63
2023-07-23T08:49:42.616Z,1.73
2023-07-23T08:52:12.958Z,1.63
2023-07-23T08:54:41.712Z,2.03
2023-07-23T08:57:10.396Z,1.80
2023-07-23T08:59:38.666Z,2.60
2023-07-23T09:02:08.897Z,2.40
2023-07-23T09:04:36.541Z,2.70
2023-07-23T09:07:05.668Z,1.67
2023-07-23T09:09:34.813Z,1.67
2023-07-23T09:12:04.647Z,2.22
2023-07-23T09:14:42.020Z,1.63
2023-07-23T09:17:18.377Z,1.70
2023-07-23T09:19:46.360Z,1.98
2023-07-23T09:22:14.176Z,3.10
2023-07-23T09:24:43.538Z,1.95
2023-07-23T09:27:12.462Z,2.45
2023-07-23T09:29:43.131Z,1.88
2023-07-23T09:32:27.658Z,1.55
2023-07-23T09:34:56.661Z,1.63
2023-07-23T09:37:24.390Z,1.48
2023-07-23T09:39:57.000Z,3.17
2023-07-23T09:42:25.310Z,2.10
2023-07-23T09:44:53.625Z,2.00
2023-07-23T09:47:26.152Z,1.50
2023-07-23T09:49:54.532Z,1.70
2023-07-23T09:52:24.924Z,1.98
2023-07-23T09:54:53.715Z,2.35
2023-07-23T09:57:25.776Z,1.98
2023-07-23T09:59:54.615Z,1.30
2023-07-23T10:02:25.323Z,1.23
2023-07-23T10:04:54.031Z,3.20
2023-07-23T10:07:22.781Z,2.95
2023-07-23T10:09:50.900Z,2.40
2023-07-23T10:12:18.719Z,2.65
2023-07-23T10:14:47.977Z,1.97
2023-07-23T10:17:16.167Z,2.63
2023-07-23T10:19:45.271Z,2.47
2023-07-23T10:22:13.302Z,2.08
2023-07-23T10:24:41.590Z,1.73
2023-07-23T10:27:13.546Z,2.42
2023-07-23T10:29:41.311Z,3.83
2023-07-23T10:32:27.902Z,3.50
2023-07-23T10:34:56.237Z,4.03
2023-07-23T10:37:24.476Z,2.10
2023-07-23T10:39:54.415Z,1.65
2023-07-23T10:42:45.465Z,1.90
2023-07-23T10:45:17.069Z,2.72
2023-07-23T10:47:50.601Z,2.37
2023-07-23T10:50:19.813Z,2.25
2023-07-23T10:52:48.285Z,2.10
2023-07-23T10:55:34.173Z,3.60
2023-07-23T10:58:02.990Z,2.95
2023-07-23T11:00:32.654Z,2.97
2023-07-23T11:03:01.981Z,2.65
2023-07-23T11:05:40.708Z,3.88
2023-07-23T11:08:19.191Z,2.03
2023-07-23T11:10:56.874Z,1.95
2023-07-23T11:13:28.640Z,2.78
2023-07-23T11:15:56.972Z,1.80
2023-07-23T11:18:26.444Z,2.60
2023-07-23T11:20:55.739Z,2.70
2023-07-23T11:23:26.715Z,2.25
2023-07-23T11:25:54.746Z,2.72
2023-07-23T11:28:24.267Z,2.20
2023-07-23T11:30:56.067Z,4.53
2023-07-23T11:33:24.131Z,2.75
2023-07-23T11:35:53.439Z,3.20
2023-07-23T11:38:21.226Z,2.43
2023-07-23T11:40:53.332Z,3.88
2023-07-23T11:43:21.250Z,2.78
2023-07-23T11:45:50.465Z,2.58
2023-07-23T11:48:20.070Z,3.15
2023-07-23T11:50:49.073Z,3.33
2023-07-23T11:53:32.283Z,2.67
2023-07-23T11:56:06.651Z,2.30
2023-07-23T11:58:36.472Z,2.60
2023-07-23T12:01:06.688Z,2.70
2023-07-23T12:03:36.424Z,3.73
2023-07-23T12:06:05.889Z,2.97
2023-07-23T12:08:36.517Z,4.13
2023-07-23T12:11:09.810Z,3.15
2023-07-23T12:13:43.718Z,3.97
2023-07-23T12:16:34.862Z,3.45
2023-07-23T12:19:05.194Z,2.42
2023-07-23T12:21:36.016Z,3.42
2023-07-23T12:24:15.218Z,3.75
2023-07-23T12:26:42.941Z,3.80
2023-07-23T12:29:11.122Z,3.72
2023-07-23T12:31:42.648Z,3.67
2023-07-23T12:34:11.126Z,3.17
2023-07-23T12:36:39.584Z,3.15
2023-07-23T12:39:09.488Z,3.92
2023-07-23T12:41:38.805Z,3.97
2023-07-23T12:44:06.851Z,4.28
2023-07-23T12:46:34.660Z,3.95
2023-07-23T12:49:02.372Z,2.72
2023-07-23T12:51:30.178Z,4.50
2023-07-23T12:53:57.782Z,4.18
2023-07-23T12:56:25.437Z,3.60
2023-07-23T12:58:54.515Z,3.22
2023-07-23T13:01:22.328Z,2.70
2023-07-23T13:03:50.543Z,3.30
2023-07-23T13:06:18.255Z,3.88
2023-07-23T13:08:45.916Z,2.65
2023-07-23T13:11:13.664Z,3.77
2023-07-23T13:13:41.366Z,3.65
2023-07-23T13:16:11.341Z,2.90
2023-07-23T13:18:39.064Z,3.13
2023-07-23T13:21:06.827Z,4.13
2023-07-23T13:23:34.490Z,4.03
2023-07-23T13:26:02.372Z,3.38
2023-07-23T13:28:30.033Z,2.45
2023-07-23T13:30:59.298Z,3.42
2023-07-23T13:33:28.397Z,2.33
2023-07-23T13:35:56.123Z,3.95
2023-07-23T13:38:25.421Z,5.10
2023-07-23T13:40:53.483Z,2.35
2023-07-23T13:43:21.104Z,2.50
2023-07-23T13:45:48.806Z,3.30
2023-07-23T13:48:16.474Z,3.20
2023-07-23T13:50:51.487Z,3.42
2023-07-23T13:53:20.242Z,4.13
2023-07-23T13:55:48.286Z,2.50
2023-07-23T13:58:16.014Z,4.55
2023-07-23T14:00:43.950Z,3.42
2023-07-23T14:03:12.050Z,4.60
2023-07-23T14:05:39.867Z,3.47
2023-07-23T14:08:09.098Z,3.42
2023-07-23T14:10:37.727Z,4.43
2023-07-23T14:13:05.754Z,3.45
2023-07-23T14:15:33.418Z,3.17
2023-07-23T14:18:02.306Z,3.73
2023-07-23T14:20:30.385Z,3.78
2023-07-23T14:22:58.046Z,3.60
2023-07-23T14:25:27.145Z,2.97
2023-07-23T14:27:54.816Z,2.93
2023-07-23T14:30:23.033Z,4.57
2023-07-23T14:32:50.839Z,3.35
2023-07-23T14:35:18.586Z,3.40
2023-07-23T14:37:46.692Z,3.60
2023-07-23T14:40:14.377Z,3.63
2023-07-23T14:42:43.370Z,2.95
2023-07-23T14:45:12.505Z,3.00
2023-07-23T14:47:40.233Z,3.70
2023-07-23T14:50:09.651Z,3.05
2023-07-23T14:52:37.575Z,5.68
2023-07-23T14:55:05.764Z,5.65
2023-07-23T14:57:33.611Z,4.07
2023-07-23T15:00:02.825Z,3.33
2023-07-23T15:02:30.661Z,4.47
2023-07-23T15:04:58.640Z,3.63
2023-07-23T15:07:26.584Z,2.50
2023-07-23T15:09:54.317Z,3.75
2023-07-23T15:12:22.450Z,2.67
2023-07-23T15:14:50.825Z,3.00
2023-07-23T15:17:20.828Z,3.75
2023-07-23T15:19:49.235Z,3.80
2023-07-23T15:22:17.501Z,5.10
2023-07-23T15:24:45.688Z,3.88
2023-07-23T15:27:15.570Z,5.28
2023-07-23T15:29:44.307Z,4.50
2023-07-23T15:32:12.587Z,6.15
2023-07-23T15:34:41.865Z,6.10
2023-07-23T15:37:09.556Z,3.85
2023-07-23T15:39:37.390Z,3.87
2023-07-23T15:42:05.619Z,3.85
2023-07-23T15:44:33.588Z,4.03
2023-07-23T15:47:01.432Z,2.92
2023-07-23T15:49:31.252Z,4.28
2023-07-23T15:52:02.892Z,3.30
2023-07-23T15:54:31.079Z,3.65
2023-07-23T15:56:58.653Z,2.65
2023-07-23T15:59:26.321Z,3.67
2023-07-23T16:01:53.983Z,3.77
2023-07-23T16:04:21.609Z,4.15
2023-07-23T16:06:49.237Z,3.25
2023-07-23T16:09:18.305Z,3.05
2023-07-23T16:11:45.907Z,2.78
2023-07-23T16:14:13.545Z,3.13
2023-07-23T16:16:41.167Z,2.50
2023-07-23T16:19:08.877Z,4.25
2023-07-23T16:21:36.426Z,3.70
2023-07-23T16:24:05.429Z,2.83
2023-07-23T16:26:34.525Z,3.30
2023-07-23T16:29:02.122Z,4.03
2023-07-23T16:31:30.085Z,2.95
2023-07-23T16:33:58.578Z,3.35
2023-07-23T16:36:30.428Z,3.83
2023-07-23T16:38:58.434Z,2.80
2023-07-23T16:41:26.563Z,4.53
2023-07-23T16:43:56.587Z,2.47
2023-07-23T16:46:25.322Z,4.68
2023-07-23T16:48:53.992Z,3.15
2023-07-23T16:51:21.721Z,3.20
2023-07-23T16:53:49.407Z,3.10
2023-07-23T16:56:17.122Z,3.22
2023-07-23T16:58:47.525Z,4.25
2023-07-23T17:01:16.676Z,3.28
2023-07-23T17:03:44.381Z,3.77
2023-07-23T17:06:12.091Z,4.90
2023-07-23T17:08:39.828Z,5.28
2023-07-23T17:11:15.852Z,4.37
2023-07-23T17:13:43.580Z,3.20
2023-07-23T17:16:11.328Z,3.60
2023-07-23T17:18:40.289Z,3.55
2023-07-23T17:21:07.989Z,4.05
2023-07-23T17:23:35.669Z,3.55
2023-07-23T17:26:03.430Z,3.55
2023-07-23T17:28:32.368Z,3.65
2023-07-23T17:31:02.140Z,3.72
2023-07-23T17:33:30.348Z,2.67
2023-07-23T17:35:59.448Z,4.32
2023-07-23T17:38:27.133Z,3.95
2023-07-23T17:40:54.786Z,3.90
2023-07-23T17:43:22.438Z,4.30
2023-07-23T17:45:50.043Z,4.40
2023-07-23T17:48:17.755Z,3.38
2023-07-23T17:50:45.329Z,2.97
2023-07-23T17:53:14.374Z,3.17
2023-07-23T17:55:42.244Z,2.97
2023-07-23T17:58:12.727Z,3.00
2023-07-23T18:00:40.437Z,4.60
2023-07-23T18:03:08.372Z,3.47
2023-07-23T18:05:36.269Z,3.37
2023-07-23T18:08:04.125Z,3.72
2023-07-23T18:10:33.353Z,3.63
2023-07-23T18:13:01.103Z,3.13
2023-07-23T18:15:28.865Z,3.20
2023-07-23T18:17:56.551Z,4.82
2023-07-23T18:20:24.683Z,3.63
2023-07-23T18:22:52.409Z,3.55
2023-07-23T18:25:20.164Z,4.27
2023-07-23T18:27:49.552Z,3.40
2023-07-23T18:30:17.744Z,2.65
2023-07-23T18:32:45.682Z,4.25
2023-07-23T18:35:14.327Z,4.88
2023-07-23T18:37:42.175Z,4.77
2023-07-23T18:40:10.852Z,3.38
2023-07-23T18:42:38.540Z,2.58
2023-07-23T18:45:09.328Z,2.47
2023-07-23T18:47:37.368Z,3.42
2023-07-23T18:50:07.176Z,3.80
2023-07-23T18:52:35.425Z,5.20
2023-07-23T18:55:03.403Z,4.03
2023-07-23T18:57:31.191Z,3.30
2023-07-23T18:59:59.073Z,2.60
2023-07-23T19:02:28.312Z,4.00
2023-07-23T19:04:56.144Z,4.20
2023-07-23T19:07:24.022Z,3.80
2023-07-23T19:09:51.978Z,3.03
2023-07-23T19:12:19.962Z,3.28
2023-07-23T19:14:47.868Z,3.42
2023-07-23T19:17:16.841Z,2.97
2023-07-23T19:19:46.536Z,3.90
2023-07-23T19:22:14.337Z,4.57
2023-07-23T19:24:42.296Z,4.05
2023-07-23T19:27:10.768Z,3.97
2023-07-23T19:29:39.146Z,4.90
2023-07-23T19:32:07.455Z,4.55
2023-07-23T19:34:35.205Z,4.07
2023-07-23T19:37:05.016Z,5.85
2023-07-23T19:39:32.919Z,4.90
2023-07-23T19:42:00.650Z,3.78
2023-07-23T19:44:28.851Z,6.07
2023-07-23T19:46:56.914Z,5.40
2023-07-23T19:49:24.778Z,4.38
2023-07-23T19:51:52.663Z,3.88
2023-07-23T19:54:22.021Z,6.07
2023-07-23T19:56:49.841Z,5.28
2023-07-23T19:59:17.696Z,5.35
2023-07-23T20:01:45.507Z,4.88
2023-07-23T20:04:13.237Z,4.07
2023-07-23T20:06:41.218Z,3.80
2023-07-23T20:09:09.017Z,3.67
2023-07-23T20:11:39.314Z,5.10
2023-07-23T20:14:07.053Z,3.50
2023-07-23T20:16:34.934Z,4.28
2023-07-23T20:19:02.751Z,4.10
2023-07-23T20:21:42.425Z,4.68
2023-07-23T20:24:14.703Z,3.60
2023-07-23T20:26:44.170Z,4.03
2023-07-23T20:29:12.548Z,5.97
2023-07-23T20:31:40.646Z,3.72
2023-07-23T20:34:09.127Z,4.28
2023-07-23T20:36:37.282Z,4.88
2023-07-23T20:39:05.491Z,4.90
2023-07-23T20:41:35.441Z,4.25
2023-07-23T20:44:04.583Z,4.93
2023-07-23T20:46:32.848Z,5.67
2023-07-23T20:49:00.869Z,3.40
2023-07-23T20:51:28.592Z,4.00
2023-07-23T20:53:56.265Z,3.88
2023-07-23T20:56:24.737Z,3.20
2023-07-23T20:58:52.749Z,6.20
2023-07-23T21:01:21.842Z,5.07
2023-07-23T21:03:49.743Z,5.15
2023-07-23T21:06:17.561Z,4.18
2023-07-23T21:08:45.483Z,4.55
2023-07-23T21:11:13.106Z,3.88
2023-07-23T21:13:40.798Z,4.88
2023-07-23T21:16:08.687Z,4.05
2023-07-23T21:18:37.746Z,3.70
2023-07-23T21:21:05.515Z,3.88
2023-07-23T21:23:33.290Z,5.13
2023-07-23T21:26:01.078Z,3.58
2023-07-23T21:28:28.845Z,4.03
2023-07-23T21:30:56.847Z,4.18
2023-07-23T21:33:24.558Z,4.77
2023-07-23T21:35:53.654Z,4.53
2023-07-23T21:38:21.326Z,4.78
2023-07-23T21:40:49.131Z,4.25
2023-07-23T21:43:16.769Z,4.10
2023-07-23T21:45:50.503Z,6.25
2023-07-23T21:48:19.369Z,4.05
2023-07-23T21:50:46.982Z,5.07
2023-07-23T21:53:16.114Z,5.10
2023-07-23T21:55:44.224Z,4.85
2023-07-23T21:58:11.990Z,3.95
2023-07-23T22:00:39.782Z,3.30
2023-07-23T22:03:07.483Z,4.50
2023-07-23T22:05:35.260Z,4.45
2023-07-23T22:08:03.082Z,4.20
2023-07-23T22:10:32.265Z,7.20
2023-07-23T22:13:00.035Z,4.43
2023-07-23T22:15:27.927Z,4.07
2023-07-23T22:17:55.698Z,4.25
2023-07-23T22:20:23.442Z,4.00
2023-07-23T22:22:51.185Z,4.18
2023-07-23T22:25:18.894Z,4.88
2023-07-23T22:27:48.002Z,5.05
2023-07-23T22:30:28.969Z,4.32
2023-07-23T22:32:58.406Z,6.65
2023-07-23T22:35:26.235Z,4.43
2023-07-23T22:37:54.956Z,5.00
2023-07-23T22:40:22.695Z,4.72
2023-07-23T22:43:02.870Z,4.07
2023-07-23T22:45:32.199Z,5.13
2023-07-23T22:48:00.044Z,4.90
2023-07-23T22:50:29.202Z,3.90
2023-07-23T22:52:56.890Z,4.50
2023-07-23T22:55:24.561Z,4.90
2023-07-23T22:57:54.072Z,3.80
2023-07-23T23:00:22.138Z,4.00
2023-07-23T23:02:49.983Z,5.72
2023-07-23T23:05:17.790Z,4.18
2023-07-23T23:07:45.461Z,5.38
2023-07-23T23:10:13.296Z,5.10
2023-07-23T23:12:40.931Z,6.07
2023-07-23T23:15:10.787Z,4.10
2023-07-23T23:17:38.462Z,4.40
2023-07-23T23:20:07.493Z,4.70
2023-07-23T23:22:35.156Z,4.65
2023-07-23T23:25:02.937Z,4.38
2023-07-23T23:27:34.081Z,5.60
2023-07-23T23:30:01.953Z,5.75
2023-07-23T23:32:31.019Z,4.75
2023-07-23T23:34:58.828Z,4.75
2023-07-23T23:37:26.481Z,6.47
2023-07-23T23:39:54.177Z,6.18
2023-07-23T23:42:21.917Z,5.82
2023-07-23T23:44:50.102Z,6.07
2023-07-23T23:47:17.825Z,5.53
2023-07-23T23:49:46.860Z,6.00
2023-07-23T23:52:14.516Z,4.15
2023-07-23T23:54:42.185Z,5.10
2023-07-23T23:57:09.977Z,3.72
2023-07-23T23:59:38.154Z,5.03
